sensor_id;sensor_type;location;lat;lon;timestamp;P1;P2;P0
77320;PMS7003;66382;52.252;8.780;2024-03-06T00:00:23;51.50;44.50;30.00
77320;PMS7003;66382;52.252;8.780;2024-03-06T00:02:49;50.25;44.00;27.00
77320;PMS7003;66382;52.252;8.780;2024-03-06T00:05:14;47.75;42.00;29.50
77320;PMS7003;66382;52.252;8.780;2024-03-06T00:07:40;49.00;42.25;29.00
77320;PMS7003;66382;52.252;8.780;2024-03-06T00:10:05;56.50;46.00;29.00
77320;PMS7003;66382;52.252;8.780;2024-03-06T00:12:32;45.75;40.25;25.75
77320;PMS7003;66382;52.252;8.780;2024-03-06T00:14:58;50.25;43.25;27.00
77320;PMS7003;66382;52.252;8.780;2024-03-06T00:17:23;48.00;41.75;27.00
77320;PMS7003;66382;52.252;8.780;2024-03-06T00:19:49;38.75;36.50;25.50
77320;PMS7003;66382;52.252;8.780;2024-03-06T00:22:14;46.00;40.25;26.50
77320;PMS7003;66382;52.252;8.780;2024-03-06T00:24:39;47.75;40.75;26.00
77320;PMS7003;66382;52.252;8.780;2024-03-06T00:27:05;51.25;44.75;27.00
77320;PMS7003;66382;52.252;8.780;2024-03-06T00:29:32;44.75;40.00;26.75
77320;PMS7003;66382;52.252;8.780;2024-03-06T00:31:57;47.50;41.00;27.00
77320;PMS7003;66382;52.252;8.780;2024-03-06T00:34:23;44.75;40.25;26.50
77320;PMS7003;66382;52.252;8.780;2024-03-06T00:36:48;46.25;39.00;27.00
77320;PMS7003;66382;52.252;8.780;2024-03-06T00:39:14;45.75;40.25;27.00
77320;PMS7003;66382;52.252;8.780;2024-03-06T00:41:39;41.50;38.25;28.25
77320;PMS7003;66382;52.252;8.780;2024-03-06T00:44:04;41.25;35.50;21.75
77320;PMS7003;66382;52.252;8.780;2024-03-06T00:46:31;44.50;39.50;26.25
77320;PMS7003;66382;52.252;8.780;2024-03-06T00:48:57;42.25;38.00;27.00
77320;PMS7003;66382;52.252;8.780;2024-03-06T00:51:22;43.25;38.50;27.75
77320;PMS7003;66382;52.252;8.780;2024-03-06T00:53:47;40.50;37.25;28.25
77320;PMS7003;66382;52.252;8.780;2024-03-06T00:56:13;44.50;39.50;27.00
77320;PMS7003;66382;52.252;8.780;2024-03-06T00:58:38;41.25;37.00;25.00
77320;PMS7003;66382;52.252;8.780;2024-03-06T01:01:04;40.00;37.25;26.00
77320;PMS7003;66382;52.252;8.780;2024-03-06T01:03:31;42.75;39.00;27.25
77320;PMS7003;66382;52.252;8.780;2024-03-06T01:05:56;45.25;40.50;26.50
77320;PMS7003;66382;52.252;8.780;2024-03-06T01:08:22;43.50;39.50;25.75
77320;PMS7003;66382;52.252;8.780;2024-03-06T01:10:48;38.00;36.25;24.50
77320;PMS7003;66382;52.252;8.780;2024-03-06T01:13:13;46.00;40.25;26.75
77320;PMS7003;66382;52.252;8.780;2024-03-06T01:15:39;40.75;37.75;25.25
77320;PMS7003;66382;52.252;8.780;2024-03-06T01:18:04;39.50;36.50;25.25
77320;PMS7003;66382;52.252;8.780;2024-03-06T01:20:31;41.25;37.50;25.25
77320;PMS7003;66382;52.252;8.780;2024-03-06T01:22:57;42.50;39.00;25.25
77320;PMS7003;66382;52.252;8.780;2024-03-06T01:25:22;37.75;35.00;22.75
77320;PMS7003;66382;52.252;8.780;2024-03-06T01:27:48;37.25;35.50;24.25
77320;PMS7003;66382;52.252;8.780;2024-03-06T01:30:13;34.25;33.50;22.00
77320;PMS7003;66382;52.252;8.780;2024-03-06T01:32:39;39.25;37.00;25.50
77320;PMS7003;66382;52.252;8.780;2024-03-06T01:35:05;36.75;35.50;23.50
77320;PMS7003;66382;52.252;8.780;2024-03-06T01:37:32;37.75;35.50;24.25
77320;PMS7003;66382;52.252;8.780;2024-03-06T01:39:58;39.50;35.50;24.00
77320;PMS7003;66382;52.252;8.780;2024-03-06T01:42:23;38.50;36.50;24.25
77320;PMS7003;66382;52.252;8.780;2024-03-06T01:44:49;39.75;36.75;23.50
77320;PMS7003;66382;52.252;8.780;2024-03-06T01:47:14;36.75;35.75;24.25
77320;PMS7003;66382;52.252;8.780;2024-03-06T01:49:40;39.00;35.75;22.75
77320;PMS7003;66382;52.252;8.780;2024-03-06T01:52:07;36.00;34.25;23.25
77320;PMS7003;66382;52.252;8.780;2024-03-06T01:54:36;35.50;33.75;24.00
77320;PMS7003;66382;52.252;8.780;2024-03-06T01:57:01;36.50;34.75;23.75
77320;PMS7003;66382;52.252;8.780;2024-03-06T01:59:28;38.50;36.50;24.25
77320;PMS7003;66382;52.252;8.780;2024-03-06T02:01:54;40.75;37.25;24.50
77320;PMS7003;66382;52.252;8.780;2024-03-06T02:04:20;42.00;39.00;24.25
77320;PMS7003;66382;52.252;8.780;2024-03-06T02:06:46;35.50;34.00;24.25
77320;PMS7003;66382;52.252;8.780;2024-03-06T02:09:12;40.25;37.25;24.00
77320;PMS7003;66382;52.252;8.780;2024-03-06T02:11:39;39.75;37.00;25.00
77320;PMS7003;66382;52.252;8.780;2024-03-06T02:14:05;28.75;28.75;21.00
77320;PMS7003;66382;52.252;8.780;2024-03-06T02:16:30;34.25;33.50;22.00
77320;PMS7003;66382;52.252;8.780;2024-03-06T02:18:56;37.75;36.00;22.00
77320;PMS7003;66382;52.252;8.780;2024-03-06T02:21:24;37.00;34.00;23.50
77320;PMS7003;66382;52.252;8.780;2024-03-06T02:23:50;40.50;36.25;24.25
77320;PMS7003;66382;52.252;8.780;2024-03-06T02:26:16;41.75;38.50;25.25
77320;PMS7003;66382;52.252;8.780;2024-03-06T02:28:46;35.00;33.25;23.00
77320;PMS7003;66382;52.252;8.780;2024-03-06T02:31:12;39.50;36.75;24.75
77320;PMS7003;66382;52.252;8.780;2024-03-06T02:33:37;38.50;35.00;24.00
77320;PMS7003;66382;52.252;8.780;2024-03-06T02:36:03;28.50;28.50;16.25
77320;PMS7003;66382;52.252;8.780;2024-03-06T02:38:30;40.50;37.00;25.00
77320;PMS7003;66382;52.252;8.780;2024-03-06T02:40:55;39.50;36.75;25.50
77320;PMS7003;66382;52.252;8.780;2024-03-06T02:43:21;40.00;37.00;25.00
77320;PMS7003;66382;52.252;8.780;2024-03-06T02:45:46;40.25;37.00;24.50
77320;PMS7003;66382;52.252;8.780;2024-03-06T02:48:12;38.25;36.25;24.00
77320;PMS7003;66382;52.252;8.780;2024-03-06T02:50:37;28.75;27.50;12.75
77320;PMS7003;66382;52.252;8.780;2024-03-06T02:53:03;36.75;35.50;24.25
77320;PMS7003;66382;52.252;8.780;2024-03-06T02:55:30;40.50;37.00;24.25
77320;PMS7003;66382;52.252;8.780;2024-03-06T02:57:55;38.75;36.25;24.50
77320;PMS7003;66382;52.252;8.780;2024-03-06T03:00:21;38.75;36.50;24.00
77320;PMS7003;66382;52.252;8.780;2024-03-06T03:02:46;43.50;39.00;26.00
77320;PMS7003;66382;52.252;8.780;2024-03-06T03:05:11;42.00;39.00;24.25
77320;PMS7003;66382;52.252;8.780;2024-03-06T03:07:37;34.00;33.25;22.25
77320;PMS7003;66382;52.252;8.780;2024-03-06T03:10:02;41.25;37.25;26.00
77320;PMS7003;66382;52.252;8.780;2024-03-06T03:12:29;40.50;37.00;24.25
77320;PMS7003;66382;52.252;8.780;2024-03-06T03:14:55;38.75;36.25;24.00
77320;PMS7003;66382;52.252;8.780;2024-03-06T03:17:20;36.75;35.25;24.00
77320;PMS7003;66382;52.252;8.780;2024-03-06T03:19:46;37.50;36.00;24.50
77320;PMS7003;66382;52.252;8.780;2024-03-06T03:22:11;42.25;38.75;26.00
77320;PMS7003;66382;52.252;8.780;2024-03-06T03:24:37;39.00;36.50;24.25
77320;PMS7003;66382;52.252;8.780;2024-03-06T03:27:02;41.25;37.25;25.00
77320;PMS7003;66382;52.252;8.780;2024-03-06T03:29:29;41.75;38.00;24.00
77320;PMS7003;66382;52.252;8.780;2024-03-06T03:31:54;44.00;39.00;23.25
77320;PMS7003;66382;52.252;8.780;2024-03-06T03:34:20;39.00;36.50;24.25
77320;PMS7003;66382;52.252;8.780;2024-03-06T03:36:45;41.50;37.50;24.50
77320;PMS7003;66382;52.252;8.780;2024-03-06T03:39:11;40.00;37.00;26.00
77320;PMS7003;66382;52.252;8.780;2024-03-06T03:41:37;37.50;36.00;22.75
77320;PMS7003;66382;52.252;8.780;2024-03-06T03:44:02;42.25;38.00;25.25
77320;PMS7003;66382;52.252;8.780;2024-03-06T03:46:29;39.25;36.75;22.50
77320;PMS7003;66382;52.252;8.780;2024-03-06T03:48:55;31.25;31.25;22.00
77320;PMS7003;66382;52.252;8.780;2024-03-06T03:51:20;41.50;38.25;24.25
77320;PMS7003;66382;52.252;8.780;2024-03-06T03:53:46;31.75;31.75;20.75
77320;PMS7003;66382;52.252;8.780;2024-03-06T03:56:11;41.25;37.00;25.25
77320;PMS7003;66382;52.252;8.780;2024-03-06T03:58:37;33.25;33.25;22.00
77320;PMS7003;66382;52.252;8.780;2024-03-06T04:01:03;40.75;37.25;24.25
77320;PMS7003;66382;52.252;8.780;2024-03-06T04:03:30;37.25;34.50;22.25
77320;PMS7003;66382;52.252;8.780;2024-03-06T04:05:55;30.75;30.75;22.00
77320;PMS7003;66382;52.252;8.780;2024-03-06T04:08:20;39.00;36.00;22.75
77320;PMS7003;66382;52.252;8.780;2024-03-06T04:10:46;40.00;37.50;25.50
77320;PMS7003;66382;52.252;8.780;2024-03-06T04:13:11;52.75;42.50;24.75
77320;PMS7003;66382;52.252;8.780;2024-03-06T04:15:37;38.00;34.50;23.25
77320;PMS7003;66382;52.252;8.780;2024-03-06T04:18:03;28.75;28.75;20.00
77320;PMS7003;66382;52.252;8.780;2024-03-06T04:20:30;37.50;36.00;24.25
77320;PMS7003;66382;52.252;8.780;2024-03-06T04:22:55;40.50;37.00;24.50
77320;PMS7003;66382;52.252;8.780;2024-03-06T04:25:20;35.50;33.75;22.00
77320;PMS7003;66382;52.252;8.780;2024-03-06T04:27:46;36.25;34.25;22.00
77320;PMS7003;66382;52.252;8.780;2024-03-06T04:30:12;43.50;37.00;24.25
77320;PMS7003;66382;52.252;8.780;2024-03-06T04:32:37;43.75;39.50;24.25
77320;PMS7003;66382;52.252;8.780;2024-03-06T04:35:03;35.75;34.75;21.00
77320;PMS7003;66382;52.252;8.780;2024-03-06T04:37:30;34.75;32.00;19.75
77320;PMS7003;66382;52.252;8.780;2024-03-06T04:39:56;37.00;35.75;24.00
77320;PMS7003;66382;52.252;8.780;2024-03-06T04:42:21;38.50;36.25;23.75
77320;PMS7003;66382;52.252;8.780;2024-03-06T04:44:47;39.75;36.75;24.25
77320;PMS7003;66382;52.252;8.780;2024-03-06T04:47:12;40.50;37.00;23.25
77320;PMS7003;66382;52.252;8.780;2024-03-06T04:49:37;31.75;31.50;24.00
77320;PMS7003;66382;52.252;8.780;2024-03-06T04:52:03;37.50;36.00;26.00
77320;PMS7003;66382;52.252;8.780;2024-03-06T04:54:30;39.75;37.00;25.25
77320;PMS7003;66382;52.252;8.780;2024-03-06T04:56:55;41.75;38.00;24.00
77320;PMS7003;66382;52.252;8.780;2024-03-06T04:59:21;38.75;36.50;23.00
77320;PMS7003;66382;52.252;8.780;2024-03-06T05:01:46;43.50;38.25;25.00
77320;PMS7003;66382;52.252;8.780;2024-03-06T05:04:12;40.50;36.75;24.25
77320;PMS7003;66382;52.252;8.780;2024-03-06T05:06:37;40.25;37.00;25.25
77320;PMS7003;66382;52.252;8.780;2024-03-06T05:09:03;46.75;40.50;25.25
77320;PMS7003;66382;52.252;8.780;2024-03-06T05:11:30;40.00;36.50;23.75
77320;PMS7003;66382;52.252;8.780;2024-03-06T05:13:57;35.75;34.75;20.25
77320;PMS7003;66382;52.252;8.780;2024-03-06T05:16:23;41.25;37.50;25.00
77320;PMS7003;66382;52.252;8.780;2024-03-06T05:18:48;44.50;39.00;25.25
77320;PMS7003;66382;52.252;8.780;2024-03-06T05:21:14;44.67;39.00;24.00
77320;PMS7003;66382;52.252;8.780;2024-03-06T05:23:39;44.00;38.00;22.75
77320;PMS7003;66382;52.252;8.780;2024-03-06T05:26:05;47.00;39.00;25.25
77320;PMS7003;66382;52.252;8.780;2024-03-06T05:28:31;34.25;33.25;25.50
77320;PMS7003;66382;52.252;8.780;2024-03-06T05:30:57;42.75;38.50;24.75
77320;PMS7003;66382;52.252;8.780;2024-03-06T05:33:22;42.00;38.50;24.75
77320;PMS7003;66382;52.252;8.780;2024-03-06T05:35:48;46.25;40.75;24.25
77320;PMS7003;66382;52.252;8.780;2024-03-06T05:38:13;42.75;39.00;24.25
77320;PMS7003;66382;52.252;8.780;2024-03-06T05:40:38;50.50;41.25;25.75
77320;PMS7003;66382;52.252;8.780;2024-03-06T05:43:04;48.75;41.50;26.00
77320;PMS7003;66382;52.252;8.780;2024-03-06T05:45:31;44.25;40.00;26.50
77320;PMS7003;66382;52.252;8.780;2024-03-06T05:47:56;33.00;33.00;19.00
77320;PMS7003;66382;52.252;8.780;2024-03-06T05:50:22;45.25;39.75;24.75
77320;PMS7003;66382;52.252;8.780;2024-03-06T05:52:47;47.00;41.00;26.75
77320;PMS7003;66382;52.252;8.780;2024-03-06T05:55:12;41.50;37.00;26.00
77320;PMS7003;66382;52.252;8.780;2024-03-06T05:57:38;38.00;36.00;25.75
77320;PMS7003;66382;52.252;8.780;2024-03-06T06:00:04;45.50;40.50;25.50
77320;PMS7003;66382;52.252;8.780;2024-03-06T06:02:31;41.25;37.75;27.00
77320;PMS7003;66382;52.252;8.780;2024-03-06T06:04:57;44.75;39.00;27.00
77320;PMS7003;66382;52.252;8.780;2024-03-06T06:07:22;44.75;39.00;25.00
77320;PMS7003;66382;52.252;8.780;2024-03-06T06:09:48;39.50;36.75;23.50
77320;PMS7003;66382;52.252;8.780;2024-03-06T06:12:13;50.25;43.00;26.75
77320;PMS7003;66382;52.252;8.780;2024-03-06T06:14:39;44.75;39.00;24.75
77320;PMS7003;66382;52.252;8.780;2024-03-06T06:17:04;48.50;42.25;27.00
77320;PMS7003;66382;52.252;8.780;2024-03-06T06:19:31;46.00;40.75;25.25
77320;PMS7003;66382;52.252;8.780;2024-03-06T06:21:58;50.25;42.25;25.25
77320;PMS7003;66382;52.252;8.780;2024-03-06T06:24:23;41.50;38.00;28.50
77320;PMS7003;66382;52.252;8.780;2024-03-06T06:26:49;48.50;42.25;26.50
77320;PMS7003;66382;52.252;8.780;2024-03-06T06:29:14;44.50;40.00;27.50
77320;PMS7003;66382;52.252;8.780;2024-03-06T06:31:39;48.75;42.75;27.00
77320;PMS7003;66382;52.252;8.780;2024-03-06T06:34:05;43.75;39.25;26.50
77320;PMS7003;66382;52.252;8.780;2024-03-06T06:36:32;49.00;42.50;27.00
77320;PMS7003;66382;52.252;8.780;2024-03-06T06:38:57;46.75;40.75;25.00
77320;PMS7003;66382;52.252;8.780;2024-03-06T06:41:22;43.25;39.00;26.50
77320;PMS7003;66382;52.252;8.780;2024-03-06T06:43:49;45.00;40.50;26.00
77320;PMS7003;66382;52.252;8.780;2024-03-06T06:46:15;33.75;33.25;20.00
77320;PMS7003;66382;52.252;8.780;2024-03-06T06:48:41;47.00;41.00;25.00
77320;PMS7003;66382;52.252;8.780;2024-03-06T06:51:06;44.75;39.50;25.25
77320;PMS7003;66382;52.252;8.780;2024-03-06T06:53:33;49.25;42.75;27.75
77320;PMS7003;66382;52.252;8.780;2024-03-06T06:55:58;47.75;42.00;26.25
77320;PMS7003;66382;52.252;8.780;2024-03-06T06:58:24;47.25;40.00;24.75
77320;PMS7003;66382;52.252;8.780;2024-03-06T07:00:49;50.25;42.75;26.00
77320;PMS7003;66382;52.252;8.780;2024-03-06T07:03:15;50.25;42.25;26.50
77320;PMS7003;66382;52.252;8.780;2024-03-06T07:05:40;50.00;43.25;27.50
77320;PMS7003;66382;52.252;8.780;2024-03-06T07:08:06;49.75;41.75;27.25
77320;PMS7003;66382;52.252;8.780;2024-03-06T07:10:33;50.75;43.00;26.25
77320;PMS7003;66382;52.252;8.780;2024-03-06T07:12:58;47.00;40.00;25.00
77320;PMS7003;66382;52.252;8.780;2024-03-06T07:15:24;47.75;40.75;25.25
77320;PMS7003;66382;52.252;8.780;2024-03-06T07:17:49;49.75;42.00;26.00
77320;PMS7003;66382;52.252;8.780;2024-03-06T07:20:15;48.50;41.75;25.50
77320;PMS7003;66382;52.252;8.780;2024-03-06T07:22:40;46.75;41.50;26.25
77320;PMS7003;66382;52.252;8.780;2024-03-06T07:25:06;49.75;43.25;27.00
77320;PMS7003;66382;52.252;8.780;2024-03-06T07:27:33;50.25;42.50;26.00
77320;PMS7003;66382;52.252;8.780;2024-03-06T07:29:58;48.25;41.50;26.75
77320;PMS7003;66382;52.252;8.780;2024-03-06T07:32:24;50.25;43.25;25.75
77320;PMS7003;66382;52.252;8.780;2024-03-06T07:34:49;44.75;40.00;25.75
77320;PMS7003;66382;52.252;8.780;2024-03-06T07:37:14;40.25;37.00;25.25
77320;PMS7003;66382;52.252;8.780;2024-03-06T07:39:40;50.00;43.25;27.75
77320;PMS7003;66382;52.252;8.780;2024-03-06T07:42:05;46.75;40.75;27.50
77320;PMS7003;66382;52.252;8.780;2024-03-06T07:44:32;47.00;40.25;26.25
77320;PMS7003;66382;52.252;8.780;2024-03-06T07:46:58;51.25;43.50;28.00
77320;PMS7003;66382;52.252;8.780;2024-03-06T07:49:23;52.75;44.50;26.50
77320;PMS7003;66382;52.252;8.780;2024-03-06T07:51:49;49.50;41.75;25.00
77320;PMS7003;66382;52.252;8.780;2024-03-06T07:54:14;53.50;44.75;26.75
77320;PMS7003;66382;52.252;8.780;2024-03-06T07:56:40;51.50;44.00;28.00
77320;PMS7003;66382;52.252;8.780;2024-03-06T07:59:05;52.75;45.00;28.75
77320;PMS7003;66382;52.252;8.780;2024-03-06T08:01:32;52.25;43.75;26.25
77320;PMS7003;66382;52.252;8.780;2024-03-06T08:03:58;47.25;41.75;27.75
77320;PMS7003;66382;52.252;8.780;2024-03-06T08:06:23;53.50;45.50;27.00
77320;PMS7003;66382;52.252;8.780;2024-03-06T08:08:48;52.00;43.50;26.25
77320;PMS7003;66382;52.252;8.780;2024-03-06T08:11:14;50.25;42.00;26.00
77320;PMS7003;66382;52.252;8.780;2024-03-06T08:13:39;50.25;42.50;28.00
77320;PMS7003;66382;52.252;8.780;2024-03-06T08:16:05;50.50;43.25;26.25
77320;PMS7003;66382;52.252;8.780;2024-03-06T08:18:33;53.50;43.00;26.00
77320;PMS7003;66382;52.252;8.780;2024-03-06T08:20:59;52.25;43.75;26.50
77320;PMS7003;66382;52.252;8.780;2024-03-06T08:23:25;48.25;39.75;25.25
77320;PMS7003;66382;52.252;8.780;2024-03-06T08:25:50;51.00;44.00;28.25
77320;PMS7003;66382;52.252;8.780;2024-03-06T08:28:16;49.50;43.25;26.00
77320;PMS7003;66382;52.252;8.780;2024-03-06T08:30:41;48.75;42.50;25.75
77320;PMS7003;66382;52.252;8.780;2024-03-06T08:33:07;48.50;42.50;25.75
77320;PMS7003;66382;52.252;8.780;2024-03-06T08:35:33;52.00;43.25;26.50
77320;PMS7003;66382;52.252;8.780;2024-03-06T08:37:59;51.75;43.75;27.50
77320;PMS7003;66382;52.252;8.780;2024-03-06T08:40:25;48.75;42.00;27.50
77320;PMS7003;66382;52.252;8.780;2024-03-06T08:42:51;50.00;43.00;28.25
77320;PMS7003;66382;52.252;8.780;2024-03-06T08:45:16;42.25;38.00;24.25
77320;PMS7003;66382;52.252;8.780;2024-03-06T08:47:42;54.00;45.50;29.25
77320;PMS7003;66382;52.252;8.780;2024-03-06T08:50:08;50.50;43.75;25.75
77320;PMS7003;66382;52.252;8.780;2024-03-06T08:52:35;48.50;42.00;27.75
77320;PMS7003;66382;52.252;8.780;2024-03-06T08:55:01;41.00;36.75;24.75
77320;PMS7003;66382;52.252;8.780;2024-03-06T08:57:27;55.25;47.00;29.25
77320;PMS7003;66382;52.252;8.780;2024-03-06T08:59:52;49.50;42.50;26.25
77320;PMS7003;66382;52.252;8.780;2024-03-06T09:02:18;44.25;39.00;24.50
77320;PMS7003;66382;52.252;8.780;2024-03-06T09:04:44;50.75;43.00;26.25
77320;PMS7003;66382;52.252;8.780;2024-03-06T09:07:10;52.75;44.75;27.25
77320;PMS7003;66382;52.252;8.780;2024-03-06T09:09:38;47.25;41.00;25.50
77320;PMS7003;66382;52.252;8.780;2024-03-06T09:12:04;49.00;42.25;26.50
77320;PMS7003;66382;52.252;8.780;2024-03-06T09:14:30;46.75;41.25;27.50
77320;PMS7003;66382;52.252;8.780;2024-03-06T09:16:56;51.75;44.50;26.00
77320;PMS7003;66382;52.252;8.780;2024-03-06T09:19:21;54.00;44.75;27.50
77320;PMS7003;66382;52.252;8.780;2024-03-06T09:21:46;51.75;44.50;26.75
77320;PMS7003;66382;52.252;8.780;2024-03-06T09:24:12;48.50;41.75;26.75
77320;PMS7003;66382;52.252;8.780;2024-03-06T09:26:39;48.25;40.75;26.75
77320;PMS7003;66382;52.252;8.780;2024-03-06T09:29:04;51.25;44.25;27.25
77320;PMS7003;66382;52.252;8.780;2024-03-06T09:31:30;45.25;39.75;25.50
77320;PMS7003;66382;52.252;8.780;2024-03-06T09:33:55;51.50;44.00;28.00
77320;PMS7003;66382;52.252;8.780;2024-03-06T09:36:21;46.50;39.75;26.00
77320;PMS7003;66382;52.252;8.780;2024-03-06T09:38:46;52.75;45.25;28.00
77320;PMS7003;66382;52.252;8.780;2024-03-06T09:41:11;50.25;43.25;26.25
77320;PMS7003;66382;52.252;8.780;2024-03-06T09:43:38;47.75;41.25;26.00
77320;PMS7003;66382;52.252;8.780;2024-03-06T09:46:04;54.00;45.00;28.00
77320;PMS7003;66382;52.252;8.780;2024-03-06T09:48:29;48.00;41.50;24.75
77320;PMS7003;66382;52.252;8.780;2024-03-06T09:50:57;49.75;42.75;27.75
77320;PMS7003;66382;52.252;8.780;2024-03-06T09:53:26;47.50;40.50;26.00
77320;PMS7003;66382;52.252;8.780;2024-03-06T09:55:51;50.25;42.25;26.00
77320;PMS7003;66382;52.252;8.780;2024-03-06T09:58:17;46.50;40.75;27.75
77320;PMS7003;66382;52.252;8.780;2024-03-06T10:00:44;53.50;46.25;29.25
77320;PMS7003;66382;52.252;8.780;2024-03-06T10:03:11;49.50;42.25;28.00
77320;PMS7003;66382;52.252;8.780;2024-03-06T10:05:37;54.75;45.25;28.00
77320;PMS7003;66382;52.252;8.780;2024-03-06T10:08:02;49.50;42.75;28.00
77320;PMS7003;66382;52.252;8.780;2024-03-06T10:10:28;55.00;46.00;29.25
77320;PMS7003;66382;52.252;8.780;2024-03-06T10:12:54;50.50;43.00;28.00
77320;PMS7003;66382;52.252;8.780;2024-03-06T10:15:19;46.25;40.00;26.00
77320;PMS7003;66382;52.252;8.780;2024-03-06T10:17:46;51.75;43.75;27.50
77320;PMS7003;66382;52.252;8.780;2024-03-06T10:20:18;54.25;44.50;28.00
77320;PMS7003;66382;52.252;8.780;2024-03-06T10:22:46;44.00;39.00;25.50
77320;PMS7003;66382;52.252;8.780;2024-03-06T10:25:12;48.75;42.00;26.00
77320;PMS7003;66382;52.252;8.780;2024-03-06T10:27:38;49.75;42.50;26.50
77320;PMS7003;66382;52.252;8.780;2024-03-06T10:30:04;50.00;43.00;28.00
77320;PMS7003;66382;52.252;8.780;2024-03-06T10:32:30;47.00;41.00;27.25
77320;PMS7003;66382;52.252;8.780;2024-03-06T10:34:57;48.75;41.50;27.25
77320;PMS7003;66382;52.252;8.780;2024-03-06T10:37:22;48.25;41.75;28.00
77320;PMS7003;66382;52.252;8.780;2024-03-06T10:39:50;51.25;44.00;28.00
77320;PMS7003;66382;52.252;8.780;2024-03-06T10:42:17;42.00;38.00;24.50
77320;PMS7003;66382;52.252;8.780;2024-03-06T10:44:45;47.25;40.75;26.00
77320;PMS7003;66382;52.252;8.780;2024-03-06T10:47:16;43.25;39.00;25.50
77320;PMS7003;66382;52.252;8.780;2024-03-06T10:49:44;49.50;41.50;26.50
77320;PMS7003;66382;52.252;8.780;2024-03-06T10:52:13;47.50;40.50;25.50
77320;PMS7003;66382;52.252;8.780;2024-03-06T10:54:39;45.75;40.50;27.25
77320;PMS7003;66382;52.252;8.780;2024-03-06T10:57:05;49.50;41.50;26.00
77320;PMS7003;66382;52.252;8.780;2024-03-06T10:59:31;51.75;44.00;28.50
77320;PMS7003;66382;52.252;8.780;2024-03-06T11:01:56;44.25;39.00;25.00
77320;PMS7003;66382;52.252;8.780;2024-03-06T11:04:24;44.75;39.25;26.00
77320;PMS7003;66382;52.252;8.780;2024-03-06T11:06:50;46.00;40.25;26.75
77320;PMS7003;66382;52.252;8.780;2024-03-06T11:09:17;46.75;40.75;26.50
77320;PMS7003;66382;52.252;8.780;2024-03-06T11:11:49;48.75;42.00;27.75
77320;PMS7003;66382;52.252;8.780;2024-03-06T11:14:15;43.25;38.25;23.50
77320;PMS7003;66382;52.252;8.780;2024-03-06T11:16:56;50.50;43.00;28.25
77320;PMS7003;66382;52.252;8.780;2024-03-06T11:19:23;51.50;43.50;27.00
77320;PMS7003;66382;52.252;8.780;2024-03-06T11:21:48;50.00;43.25;28.00
77320;PMS7003;66382;52.252;8.780;2024-03-06T11:24:15;49.25;42.25;27.00
77320;PMS7003;66382;52.252;8.780;2024-03-06T11:26:43;41.50;37.50;24.75
77320;PMS7003;66382;52.252;8.780;2024-03-06T11:29:11;47.25;41.00;28.00
77320;PMS7003;66382;52.252;8.780;2024-03-06T11:31:36;49.25;42.75;28.25
77320;PMS7003;66382;52.252;8.780;2024-03-06T11:34:04;48.75;42.00;26.50
77320;PMS7003;66382;52.252;8.780;2024-03-06T11:36:29;41.50;37.25;25.25
77320;PMS7003;66382;52.252;8.780;2024-03-06T11:38:55;48.00;41.25;25.50
77320;PMS7003;66382;52.252;8.780;2024-03-06T11:41:22;50.75;43.25;27.00
77320;PMS7003;66382;52.252;8.780;2024-03-06T11:43:50;47.00;40.25;25.25
77320;PMS7003;66382;52.252;8.780;2024-03-06T11:46:16;45.00;39.50;26.25
77320;PMS7003;66382;52.252;8.780;2024-03-06T11:48:41;53.50;45.25;28.00
77320;PMS7003;66382;52.252;8.780;2024-03-06T11:51:06;52.75;44.25;27.50
77320;PMS7003;66382;52.252;8.780;2024-03-06T11:53:33;45.75;39.00;26.75
77320;PMS7003;66382;52.252;8.780;2024-03-06T11:55:59;48.00;41.00;26.50
77320;PMS7003;66382;52.252;8.780;2024-03-06T11:58:25;48.50;40.75;27.25
77320;PMS7003;66382;52.252;8.780;2024-03-06T12:00:51;52.50;41.75;25.00
77320;PMS7003;66382;52.252;8.780;2024-03-06T12:03:19;48.25;41.25;26.50
77320;PMS7003;66382;52.252;8.780;2024-03-06T12:05:45;51.00;43.00;27.00
77320;PMS7003;66382;52.252;8.780;2024-03-06T12:08:11;47.50;40.50;26.25
77320;PMS7003;66382;52.252;8.780;2024-03-06T12:10:37;49.50;42.50;26.75
77320;PMS7003;66382;52.252;8.780;2024-03-06T12:13:03;48.00;40.50;24.00
77320;PMS7003;66382;52.252;8.780;2024-03-06T12:15:29;48.50;41.75;25.00
77320;PMS7003;66382;52.252;8.780;2024-03-06T12:17:55;46.75;40.25;26.50
77320;PMS7003;66382;52.252;8.780;2024-03-06T12:20:21;46.75;40.75;25.25
77320;PMS7003;66382;52.252;8.780;2024-03-06T12:22:48;47.25;41.00;27.25
77320;PMS7003;66382;52.252;8.780;2024-03-06T12:25:17;48.25;41.25;27.00
77320;PMS7003;66382;52.252;8.780;2024-03-06T12:27:43;46.75;39.50;25.00
77320;PMS7003;66382;52.252;8.780;2024-03-06T12:30:10;51.25;43.50;25.50
77320;PMS7003;66382;52.252;8.780;2024-03-06T12:32:36;47.75;41.50;26.00
77320;PMS7003;66382;52.252;8.780;2024-03-06T12:35:03;44.75;39.50;25.75
77320;PMS7003;66382;52.252;8.780;2024-03-06T12:37:29;47.75;41.25;26.75
77320;PMS7003;66382;52.252;8.780;2024-03-06T12:39:54;45.75;40.00;27.00
77320;PMS7003;66382;52.252;8.780;2024-03-06T12:42:20;48.50;40.75;25.25
77320;PMS7003;66382;52.252;8.780;2024-03-06T12:44:45;51.50;44.00;27.00
77320;PMS7003;66382;52.252;8.780;2024-03-06T12:47:11;48.75;42.25;27.00
77320;PMS7003;66382;52.252;8.780;2024-03-06T12:49:36;45.25;39.50;27.25
77320;PMS7003;66382;52.252;8.780;2024-03-06T12:52:03;44.25;37.75;25.50
77320;PMS7003;66382;52.252;8.780;2024-03-06T12:54:29;47.25;40.50;25.75
77320;PMS7003;66382;52.252;8.780;2024-03-06T12:56:54;44.75;39.50;26.75
77320;PMS7003;66382;52.252;8.780;2024-03-06T12:59:20;44.50;38.25;25.00
77320;PMS7003;66382;52.252;8.780;2024-03-06T13:01:45;45.25;38.50;25.00
77320;PMS7003;66382;52.252;8.780;2024-03-06T13:04:11;44.25;39.25;25.00
77320;PMS7003;66382;52.252;8.780;2024-03-06T13:06:36;45.00;39.75;26.00
77320;PMS7003;66382;52.252;8.780;2024-03-06T13:09:03;43.75;38.75;25.00
77320;PMS7003;66382;52.252;8.780;2024-03-06T13:11:28;44.75;38.75;25.00
77320;PMS7003;66382;52.252;8.780;2024-03-06T13:13:54;41.50;36.75;24.25
77320;PMS7003;66382;52.252;8.780;2024-03-06T13:16:19;45.75;40.25;26.00
77320;PMS7003;66382;52.252;8.780;2024-03-06T13:18:44;47.25;40.50;26.75
77320;PMS7003;66382;52.252;8.780;2024-03-06T13:21:10;40.00;36.25;23.50
77320;PMS7003;66382;52.252;8.780;2024-03-06T13:23:35;46.00;39.75;25.75
77320;PMS7003;66382;52.252;8.780;2024-03-06T13:26:02;41.75;36.50;25.25
77320;PMS7003;66382;52.252;8.780;2024-03-06T13:28:28;40.75;36.50;24.00
77320;PMS7003;66382;52.252;8.780;2024-03-06T13:30:53;44.75;37.75;25.75
77320;PMS7003;66382;52.252;8.780;2024-03-06T13:33:19;42.25;37.00;25.00
77320;PMS7003;66382;52.252;8.780;2024-03-06T13:35:44;47.50;41.00;26.25
77320;PMS7003;66382;52.252;8.780;2024-03-06T13:38:10;47.00;40.00;26.00